sensor_id;sensor_type;location;lat;lon;timestamp;pressure;altitude;pressure_sealevel;temperature;humidity
10064;BME280;5071;52.360;13.134;2022-08-02T00:03:25;101372.69;;;19.04;57.57
10064;BME280;5071;52.360;13.134;2022-08-02T00:08:28;101380.81;;;19.02;57.42
10064;BME280;5071;52.360;13.134;2022-08-02T00:13:32;101387.84;;;19.07;57.04
10064;BME280;5071;52.360;13.134;2022-08-02T00:18:34;101388.41;;;18.91;57.92
10064;BME280;5071;52.360;13.134;2022-08-02T00:23:36;101382.41;;;18.84;58.34
10064;BME280;5071;52.360;13.134;2022-08-02T00:29:00;101374.25;;;18.86;57.69
10064;BME280;5071;52.360;13.134;2022-08-02T00:34:01;101378.19;;;18.76;57.82
10064;BME280;5071;52.360;13.134;2022-08-02T00:39:24;101370.41;;;18.68;57.26
10064;BME280;5071;52.360;13.134;2022-08-02T00:44:36;101374.00;;;18.67;57.50
10064;BME280;5071;52.360;13.134;2022-08-02T00:49:38;101377.69;;;18.64;57.94
10064;BME280;5071;52.360;13.134;2022-08-02T00:54:41;101383.34;;;18.57;58.08
10064;BME280;5071;52.360;13.134;2022-08-02T00:59:44;101381.59;;;18.56;58.25
10064;BME280;5071;52.360;13.134;2022-08-02T01:04:46;101389.81;;;18.51;58.42
10064;BME280;5071;52.360;13.134;2022-08-02T01:09:48;101390.97;;;18.44;58.79
10064;BME280;5071;52.360;13.134;2022-08-02T01:14:54;101388.81;;;18.54;58.93
10064;BME280;5071;52.360;13.134;2022-08-02T01:20:04;101385.69;;;18.41;58.73
10064;BME280;5071;52.360;13.134;2022-08-02T01:25:24;101391.88;;;18.43;59.04
10064;BME280;5071;52.360;13.134;2022-08-02T01:30:33;101393.69;;;18.42;59.17
10064;BME280;5071;52.360;13.134;2022-08-02T01:35:39;101395.63;;;18.39;59.72
10064;BME280;5071;52.360;13.134;2022-08-02T01:40:52;101398.34;;;18.37;59.94
10064;BME280;5071;52.360;13.134;2022-08-02T01:45:58;101394.97;;;18.32;59.95
10064;BME280;5071;52.360;13.134;2022-08-02T01:51:02;101390.78;;;18.23;60.25
10064;BME280;5071;52.360;13.134;2022-08-02T01:56:06;101389.91;;;18.23;60.50
10064;BME280;5071;52.360;13.134;2022-08-02T02:01:10;101385.63;;;18.17;60.63
10064;BME280;5071;52.360;13.134;2022-08-02T02:06:19;101388.44;;;18.13;60.83
10064;BME280;5071;52.360;13.134;2022-08-02T02:11:24;101384.00;;;18.12;61.45
10064;BME280;5071;52.360;13.134;2022-08-02T02:16:48;101379.59;;;18.09;61.29
10064;BME280;5071;52.360;13.134;2022-08-02T02:21:50;101380.34;;;18.14;61.67
10064;BME280;5071;52.360;13.134;2022-08-02T02:26:52;101382.59;;;18.00;61.68
10064;BME280;5071;52.360;13.134;2022-08-02T02:31:57;101387.88;;;18.03;61.76
10064;BME280;5071;52.360;13.134;2022-08-02T02:37:02;101393.50;;;17.95;61.89
10064;BME280;5071;52.360;13.134;2022-08-02T02:42:08;101404.59;;;17.84;62.40
10064;BME280;5071;52.360;13.134;2022-08-02T02:47:14;101401.50;;;17.68;63.22
10064;BME280;5071;52.360;13.134;2022-08-02T02:52:18;101408.25;;;17.52;63.40
10064;BME280;5071;52.360;13.134;2022-08-02T02:57:20;101408.63;;;17.40;64.02
10064;BME280;5071;52.360;13.134;2022-08-02T03:02:24;101417.94;;;17.26;64.68
10064;BME280;5071;52.360;13.134;2022-08-02T03:07:27;101424.50;;;17.18;64.99
10064;BME280;5071;52.360;13.134;2022-08-02T03:12:29;101422.69;;;17.18;64.92
10064;BME280;5071;52.360;13.134;2022-08-02T03:17:39;101416.03;;;17.32;64.51
10064;BME280;5071;52.360;13.134;2022-08-02T03:22:42;101423.56;;;17.19;64.86
10064;BME280;5071;52.360;13.134;2022-08-02T03:27:46;101420.97;;;17.16;64.86
10064;BME280;5071;52.360;13.134;2022-08-02T03:32:49;101436.97;;;17.19;64.56
10064;BME280;5071;52.360;13.134;2022-08-02T03:37:53;101432.75;;;17.10;65.13
10064;BME280;5071;52.360;13.134;2022-08-02T03:42:56;101434.97;;;16.94;65.33
10064;BME280;5071;52.360;13.134;2022-08-02T03:48:00;101439.56;;;16.89;65.76
10064;BME280;5071;52.360;13.134;2022-08-02T03:53:25;101446.66;;;16.93;66.13
10064;BME280;5071;52.360;13.134;2022-08-02T03:58:27;101443.09;;;16.91;66.01
10064;BME280;5071;52.360;13.134;2022-08-02T04:03:31;101442.19;;;16.92;65.58
10064;BME280;5071;52.360;13.134;2022-08-02T04:08:33;101451.78;;;17.01;65.30
10064;BME280;5071;52.360;13.134;2022-08-02T04:13:39;101462.19;;;17.12;65.15
10064;BME280;5071;52.360;13.134;2022-08-02T04:18:46;101457.25;;;16.96;64.99
10064;BME280;5071;52.360;13.134;2022-08-02T04:23:52;101457.47;;;16.88;65.51
10064;BME280;5071;52.360;13.134;2022-08-02T04:28:55;101474.78;;;17.09;65.73
10064;BME280;5071;52.360;13.134;2022-08-02T04:33:59;101476.19;;;17.23;64.78
10064;BME280;5071;52.360;13.134;2022-08-02T04:39:01;101469.28;;;17.45;64.06
10064;BME280;5071;52.360;13.134;2022-08-02T04:44:03;101479.63;;;17.59;62.65
10064;BME280;5071;52.360;13.134;2022-08-02T04:49:06;101481.66;;;18.11;61.69
10064;BME280;5071;52.360;13.134;2022-08-02T04:54:09;101479.47;;;18.23;60.56
10064;BME280;5071;52.360;13.134;2022-08-02T04:59:12;101478.22;;;19.37;57.12
10064;BME280;5071;52.360;13.134;2022-08-02T05:04:15;101482.00;;;19.80;56.50
10064;BME280;5071;52.360;13.134;2022-08-02T05:09:17;101475.03;;;19.97;55.82
10064;BME280;5071;52.360;13.134;2022-08-02T05:14:19;101476.75;;;21.67;50.86
10064;BME280;5071;52.360;13.134;2022-08-02T05:19:23;101476.09;;;22.73;49.27
10064;BME280;5071;52.360;13.134;2022-08-02T05:24:25;101482.41;;;25.29;44.48
10064;BME280;5071;52.360;13.134;2022-08-02T05:29:27;101486.00;;;25.73;43.18
10064;BME280;5071;52.360;13.134;2022-08-02T05:34:30;101494.28;;;23.72;45.47
10064;BME280;5071;52.360;13.134;2022-08-02T05:39:32;101506.91;;;25.44;41.99
10064;BME280;5071;52.360;13.134;2022-08-02T05:44:33;101516.38;;;24.30;46.23
10064;BME280;5071;52.360;13.134;2022-08-02T05:49:39;101518.75;;;24.20;46.72
10064;BME280;5071;52.360;13.134;2022-08-02T05:54:48;101521.34;;;24.69;44.08
10064;BME280;5071;52.360;13.134;2022-08-02T06:00:02;101522.03;;;25.91;43.31
10064;BME280;5071;52.360;13.134;2022-08-02T06:05:09;101519.34;;;26.32;41.02
10064;BME280;5071;52.360;13.134;2022-08-02T06:10:14;101520.81;;;24.78;43.89
10064;BME280;5071;52.360;13.134;2022-08-02T06:15:19;101533.91;;;23.75;46.27
10064;BME280;5071;52.360;13.134;2022-08-02T06:20:23;101517.44;;;25.91;41.65
10064;BME280;5071;52.360;13.134;2022-08-02T06:25:26;101524.44;;;26.24;40.18
10064;BME280;5071;52.360;13.134;2022-08-02T06:30:49;101518.09;;;28.19;40.84
10064;BME280;5071;52.360;13.134;2022-08-02T06:36:02;101518.16;;;29.61;34.51
10064;BME280;5071;52.360;13.134;2022-08-02T06:41:07;101518.78;;;30.53;35.20
10064;BME280;5071;52.360;13.134;2022-08-02T06:46:12;101506.78;;;26.71;40.14
10064;BME280;5071;52.360;13.134;2022-08-02T06:51:36;101510.91;;;29.71;36.53
10064;BME280;5071;52.360;13.134;2022-08-02T06:56:38;101510.75;;;28.57;35.48
10064;BME280;5071;52.360;13.134;2022-08-02T07:01:40;101494.09;;;30.21;33.50
10064;BME280;5071;52.360;13.134;2022-08-02T07:06:43;101492.41;;;26.95;39.65
10064;BME280;5071;52.360;13.134;2022-08-02T07:11:45;101495.28;;;27.19;37.33
10064;BME280;5071;52.360;13.134;2022-08-02T07:16:48;101506.44;;;29.25;34.01
10064;BME280;5071;52.360;13.134;2022-08-02T07:21:51;101514.50;;;27.56;37.53
10064;BME280;5071;52.360;13.134;2022-08-02T07:27:03;101503.78;;;27.91;36.43
10064;BME280;5071;52.360;13.134;2022-08-02T07:32:14;101513.81;;;29.00;35.26
10064;BME280;5071;52.360;13.134;2022-08-02T07:37:18;101503.72;;;28.41;34.72
10064;BME280;5071;52.360;13.134;2022-08-02T07:42:40;101513.38;;;27.07;37.34
10064;BME280;5071;52.360;13.134;2022-08-02T07:47:43;101498.59;;;25.88;38.31
10064;BME280;5071;52.360;13.134;2022-08-02T07:52:46;101498.00;;;30.07;32.10
10064;BME280;5071;52.360;13.134;2022-08-02T07:57:48;101494.25;;;29.40;32.14
10064;BME280;5071;52.360;13.134;2022-08-02T08:02:50;101483.97;;;27.38;36.70
10064;BME280;5071;52.360;13.134;2022-08-02T08:07:59;101494.22;;;26.42;37.65
10064;BME280;5071;52.360;13.134;2022-08-02T08:13:01;101495.94;;;27.23;36.55
10064;BME280;5071;52.360;13.134;2022-08-02T08:18:03;101481.69;;;27.45;36.16
10064;BME280;5071;52.360;13.134;2022-08-02T08:23:07;101482.44;;;27.60;35.88
10064;BME280;5071;52.360;13.134;2022-08-02T08:28:09;101483.09;;;28.37;35.20
10064;BME280;5071;52.360;13.134;2022-08-02T08:33:10;101475.59;;;29.23;33.71
10064;BME280;5071;52.360;13.134;2022-08-02T08:38:14;101478.72;;;29.86;33.84
10064;BME280;5071;52.360;13.134;2022-08-02T08:43:17;101475.63;;;29.79;32.66
10064;BME280;5071;52.360;13.134;2022-08-02T08:48:21;101438.34;;;27.53;37.10
10064;BME280;5071;52.360;13.134;2022-08-02T08:53:38;101464.03;;;29.19;33.65
10064;BME280;5071;52.360;13.134;2022-08-02T08:58:41;101460.03;;;30.78;31.75
10064;BME280;5071;52.360;13.134;2022-08-02T09:03:43;101457.53;;;30.75;31.27
10064;BME280;5071;52.360;13.134;2022-08-02T09:08:47;101473.88;;;31.19;30.61
10064;BME280;5071;52.360;13.134;2022-08-02T09:13:51;101459.91;;;31.01;31.65
10064;BME280;5071;52.360;13.134;2022-08-02T09:18:54;101471.44;;;32.67;28.67
10064;BME280;5071;52.360;13.134;2022-08-02T09:23:58;101466.41;;;31.31;30.20
10064;BME280;5071;52.360;13.134;2022-08-02T09:29:01;101452.94;;;30.00;33.02
10064;BME280;5071;52.360;13.134;2022-08-02T09:34:03;101458.50;;;31.68;30.91
10064;BME280;5071;52.360;13.134;2022-08-02T09:39:08;101450.75;;;34.22;28.00
10064;BME280;5071;52.360;13.134;2022-08-02T09:44:11;101455.94;;;37.88;23.38
10064;BME280;5071;52.360;13.134;2022-08-02T09:49:18;101441.47;;;35.30;25.96
10064;BME280;5071;52.360;13.134;2022-08-02T09:54:23;101428.72;;;32.82;28.93
10064;BME280;5071;52.360;13.134;2022-08-02T09:59:26;101425.47;;;29.90;33.45
10064;BME280;5071;52.360;13.134;2022-08-02T10:04:30;101440.91;;;30.23;33.05
10064;BME280;5071;52.360;13.134;2022-08-02T10:09:56;101439.25;;;30.43;32.22
10064;BME280;5071;52.360;13.134;2022-08-02T10:14:59;101441.31;;;34.25;26.95
10064;BME280;5071;52.360;13.134;2022-08-02T10:20:01;101455.59;;;34.11;28.67
10064;BME280;5071;52.360;13.134;2022-08-02T10:25:08;101449.16;;;34.92;26.90
10064;BME280;5071;52.360;13.134;2022-08-02T10:30:10;101451.53;;;34.15;26.59
10064;BME280;5071;52.360;13.134;2022-08-02T10:35:15;101453.94;;;36.35;25.05
10064;BME280;5071;52.360;13.134;2022-08-02T10:40:44;101436.25;;;33.37;27.46
10064;BME280;5071;52.360;13.134;2022-08-02T10:45:46;101426.50;;;33.05;29.45
10064;BME280;5071;52.360;13.134;2022-08-02T10:50:52;101422.25;;;33.30;28.26
10064;BME280;5071;52.360;13.134;2022-08-02T10:55:57;101403.66;;;34.70;27.38
10064;BME280;5071;52.360;13.134;2022-08-02T11:01:03;101391.66;;;29.57;33.34
10064;BME280;5071;52.360;13.134;2022-08-02T11:06:07;101380.50;;;30.04;32.26
10064;BME280;5071;52.360;13.134;2022-08-02T11:11:28;101381.94;;;30.19;32.12
10064;BME280;5071;52.360;13.134;2022-08-02T11:17:07;101370.06;;;29.32;33.82
10064;BME280;5071;52.360;13.134;2022-08-02T11:22:12;101367.59;;;29.29;34.24
10064;BME280;5071;52.360;13.134;2022-08-02T11:27:21;101373.31;;;28.56;34.92
10064;BME280;5071;52.360;13.134;2022-08-02T11:32:24;101368.44;;;29.40;34.17
10064;BME280;5071;52.360;13.134;2022-08-02T11:37:33;101361.59;;;28.43;35.69
10064;BME280;5071;52.360;13.134;2022-08-02T11:42:39;101367.53;;;27.88;35.45
10064;BME280;5071;52.360;13.134;2022-08-02T11:47:44;101357.34;;;28.63;34.08
10064;BME280;5071;52.360;13.134;2022-08-02T11:52:46;101366.66;;;29.51;33.92
10064;BME280;5071;52.360;13.134;2022-08-02T11:57:56;101357.50;;;29.40;33.33
10064;BME280;5071;52.360;13.134;2022-08-02T12:03:06;101350.75;;;29.99;33.07
10064;BME280;5071;52.360;13.134;2022-08-02T12:08:08;101339.34;;;29.28;33.07
10064;BME280;5071;52.360;13.134;2022-08-02T12:13:14;101337.72;;;29.48;33.74
10064;BME280;5071;52.360;13.134;2022-08-02T12:18:17;101334.16;;;29.25;33.06
10064;BME280;5071;52.360;13.134;2022-08-02T12:23:22;101330.75;;;28.65;32.88
10064;BME280;5071;52.360;13.134;2022-08-02T12:28:25;101325.81;;;29.38;34.09
10064;BME280;5071;52.360;13.134;2022-08-02T12:33:28;101327.53;;;29.94;32.85
10064;BME280;5071;52.360;13.134;2022-08-02T12:38:30;101333.38;;;29.45;31.86
10064;BME280;5071;52.360;13.134;2022-08-02T12:43:41;101317.66;;;29.59;32.13
10064;BME280;5071;52.360;13.134;2022-08-02T12:48:44;101307.50;;;29.50;31.84
10064;BME280;5071;52.360;13.134;2022-08-02T12:54:11;101303.75;;;29.62;32.54
10064;BME280;5071;52.360;13.134;2022-08-02T12:59:34;101299.56;;;29.35;32.34
10064;BME280;5071;52.360;13.134;2022-08-02T13:04:39;101299.75;;;29.77;30.80
10064;BME280;5071;52.360;13.134;2022-08-02T13:09:51;101291.13;;;29.82;31.36
10064;BME280;5071;52.360;13.134;2022-08-02T13:15:06;101294.09;;;30.11;31.83
10064;BME280;5071;52.360;13.134;2022-08-02T13:20:29;101286.31;;;30.28;31.38
10064;BME280;5071;52.360;13.134;2022-08-02T13:25:32;101279.41;;;30.54;30.41
10064;BME280;5071;52.360;13.134;2022-08-02T13:30:36;101279.34;;;30.66;29.63
10064;BME280;5071;52.360;13.134;2022-08-02T13:35:38;101268.41;;;30.75;29.98
10064;BME280;5071;52.360;13.134;2022-08-02T13:40:40;101254.56;;;30.04;30.10
10064;BME280;5071;52.360;13.134;2022-08-02T13:46:04;101245.06;;;30.29;30.87
10064;BME280;5071;52.360;13.134;2022-08-02T13:51:06;101246.28;;;29.62;32.12
10064;BME280;5071;52.360;13.134;2022-08-02T13:56:08;101249.28;;;30.12;32.17
10064;BME280;5071;52.360;13.134;2022-08-02T14:01:11;101249.31;;;30.33;30.72
10064;BME280;5071;52.360;13.134;2022-08-02T14:06:13;101240.06;;;30.13;31.30
10064;BME280;5071;52.360;13.134;2022-08-02T14:11:14;101230.25;;;30.11;30.32
10064;BME280;5071;52.360;13.134;2022-08-02T14:16:18;101237.72;;;30.51;30.69
10064;BME280;5071;52.360;13.134;2022-08-02T14:21:19;101228.84;;;30.16;31.54
10064;BME280;5071;52.360;13.134;2022-08-02T14:26:21;101225.03;;;29.54;30.64
10064;BME280;5071;52.360;13.134;2022-08-02T14:31:29;101210.72;;;29.62;32.00
10064;BME280;5071;52.360;13.134;2022-08-02T14:36:31;101203.69;;;29.69;32.29
10064;BME280;5071;52.360;13.134;2022-08-02T14:41:34;101210.69;;;30.15;30.93
10064;BME280;5071;52.360;13.134;2022-08-02T14:46:57;101223.00;;;30.52;30.39
10064;BME280;5071;52.360;13.134;2022-08-02T14:51:59;101215.38;;;30.86;28.50
10064;BME280;5071;52.360;13.134;2022-08-02T14:57:02;101201.84;;;31.04;29.24
10064;BME280;5071;52.360;13.134;2022-08-02T15:02:06;101183.31;;;30.46;29.90
10064;BME280;5071;52.360;13.134;2022-08-02T15:07:11;101192.59;;;30.03;30.32
10064;BME280;5071;52.360;13.134;2022-08-02T15:12:13;101188.34;;;29.57;31.97
10064;BME280;5071;52.360;13.134;2022-08-02T15:17:17;101178.63;;;29.32;32.32
10064;BME280;5071;52.360;13.134;2022-08-02T15:22:20;101184.13;;;29.20;32.91
10064;BME280;5071;52.360;13.134;2022-08-02T15:27:22;101182.69;;;29.37;30.76
10064;BME280;5071;52.360;13.134;2022-08-02T15:32:25;101179.03;;;29.27;29.82
10064;BME280;5071;52.360;13.134;2022-08-02T15:37:27;101180.31;;;29.00;32.02
10064;BME280;5071;52.360;13.134;2022-08-02T15:42:31;101186.13;;;29.51;30.44
10064;BME280;5071;52.360;13.134;2022-08-02T15:47:34;101176.06;;;29.51;32.24
10064;BME280;5071;52.360;13.134;2022-08-02T15:52:37;101179.75;;;29.29;31.58
10064;BME280;5071;52.360;13.134;2022-08-02T15:57:39;101180.25;;;29.34;32.65
10064;BME280;5071;52.360;13.134;2022-08-02T16:02:42;101182.69;;;29.37;31.38
10064;BME280;5071;52.360;13.134;2022-08-02T16:07:44;101164.66;;;29.46;31.55
10064;BME280;5071;52.360;13.134;2022-08-02T16:12:46;101165.31;;;29.38;31.14
10064;BME280;5071;52.360;13.134;2022-08-02T16:17:49;101165.25;;;29.50;30.60
10064;BME280;5071;52.360;13.134;2022-08-02T16:22:55;101161.50;;;29.51;31.01
10064;BME280;5071;52.360;13.134;2022-08-02T16:27:57;101164.53;;;29.04;32.89
10064;BME280;5071;52.360;13.134;2022-08-02T16:33:09;101162.84;;;28.35;34.01
10064;BME280;5071;52.360;13.134;2022-08-02T16:38:11;101160.34;;;28.21;34.03
10064;BME280;5071;52.360;13.134;2022-08-02T16:43:13;101163.19;;;28.19;33.58
10064;BME280;5071;52.360;13.134;2022-08-02T16:48:16;101151.06;;;28.01;34.06
10064;BME280;5071;52.360;13.134;2022-08-02T16:53:18;101154.25;;;27.95;33.87
10064;BME280;5071;52.360;13.134;2022-08-02T16:58:37;101155.78;;;28.21;34.13
10064;BME280;5071;52.360;13.134;2022-08-02T17:03:46;101144.59;;;28.24;34.78
10064;BME280;5071;52.360;13.134;2022-08-02T17:08:58;101149.31;;;28.11;36.09
10064;BME280;5071;52.360;13.134;2022-08-02T17:14:01;101150.16;;;27.89;34.78
10064;BME280;5071;52.360;13.134;2022-08-02T17:19:05;101150.16;;;27.53;35.55
10064;BME280;5071;52.360;13.134;2022-08-02T17:24:07;101158.28;;;27.42;35.69
10064;BME280;5071;52.360;13.134;2022-08-02T17:29:12;101156.41;;;27.31;36.41
10064;BME280;5071;52.360;13.134;2022-08-02T17:34:19;101152.97;;;27.17;36.32
10064;BME280;5071;52.360;13.134;2022-08-02T17:39:27;101158.63;;;27.13;36.50
10064;BME280;5071;52.360;13.134;2022-08-02T17:44:34;101172.84;;;27.06;36.06
10064;BME280;5071;52.360;13.134;2022-08-02T17:49:58;101171.16;;;26.92;36.61
10064;BME280;5071;52.360;13.134;2022-08-02T17:55:01;101161.63;;;26.73;36.48
10064;BME280;5071;52.360;13.134;2022-08-02T18:00:05;101176.75;;;26.77;38.30
10064;BME280;5071;52.360;13.134;2022-08-02T18:05:09;101167.41;;;26.69;38.56
10064;BME280;5071;52.360;13.134;2022-08-02T18:10:13;101173.50;;;26.60;40.02
10064;BME280;5071;52.360;13.134;2022-08-02T18:15:16;101175.81;;;26.53;37.71
10064;BME280;5071;52.360;13.134;2022-08-02T18:20:22;101185.84;;;26.40;37.84
10064;BME280;5071;52.360;13.134;2022-08-02T18:25:25;101182.56;;;26.09;40.79
10064;BME280;5071;52.360;13.134;2022-08-02T18:30:47;101182.75;;;25.80;41.95
10064;BME280;5071;52.360;13.134;2022-08-02T18:35:51;101180.84;;;25.55;43.35
10064;BME280;5071;52.360;13.134;2022-08-02T18:40:56;101178.84;;;25.17;44.38
10064;BME280;5071;52.360;13.134;2022-08-02T18:45:58;101181.38;;;24.64;44.86
10064;BME280;5071;52.360;13.134;2022-08-02T18:51:17;101184.31;;;24.18;46.54
10064;BME280;5071;52.360;13.134;2022-08-02T18:56:20;101183.09;;;23.79;46.92
10064;BME280;5071;52.360;13.134;2022-08-02T19:01:26;101179.59;;;23.61;48.13
10064;BME280;5071;52.360;13.134;2022-08-02T19:06:35;101176.63;;;23.35;47.77
10064;BME280;5071;52.360;13.134;2022-08-02T19:11:38;101191.78;;;23.07;48.64
10064;BME280;5071;52.360;13.134;2022-08-02T19:16:42;101181.69;;;22.78;51.07
10064;BME280;5071;52.360;13.134;2022-08-02T19:21:45;101188.41;;;22.55;51.26
10064;BME280;5071;52.360;13.134;2022-08-02T19:27:08;101195.16;;;22.30;52.33
10064;BME280;5071;52.360;13.134;2022-08-02T19:32:15;101175.13;;;21.99;53.16
10064;BME280;5071;52.360;13.134;2022-08-02T19:37:39;101176.59;;;21.71;54.70
10064;BME280;5071;52.360;13.134;2022-08-02T19:42:41;101186.13;;;21.61;55.07
10064;BME280;5071;52.360;13.134;2022-08-02T19:48:05;101174.38;;;21.26;55.21
10064;BME280;5071;52.360;13.134;2022-08-02T19:53:08;101188.72;;;21.09;55.64
10064;BME280;5071;52.360;13.134;2022-08-02T19:58:12;101188.00;;;21.05;56.48
10064;BME280;5071;52.360;13.134;2022-08-02T20:03:14;101190.94;;;21.01;57.06
10064;BME280;5071;52.360;13.134;2022-08-02T20:08:18;101195.63;;;20.78;56.48
10064;BME280;5071;52.360;13.134;2022-08-02T20:13:36;101197.78;;;20.89;56.71
10064;BME280;5071;52.360;13.134;2022-08-02T20:18:48;101200.56;;;21.06;55.81
10064;BME280;5071;52.360;13.134;2022-08-02T20:23:52;101186.72;;;20.76;56.16
10064;BME280;5071;52.360;13.134;2022-08-02T20:28:54;101165.25;;;20.35;57.12
10064;BME280;5071;52.360;13.134;2022-08-02T20:34:03;101203.88;;;20.35;57.78
10064;BME280;5071;52.360;13.134;2022-08-02T20:39:09;101193.19;;;20.13;59.50
10064;BME280;5071;52.360;13.134;2022-08-02T20:44:12;101212.09;;;20.12;59.22
10064;BME280;5071;52.360;13.134;2022-08-02T20:49:30;101206.66;;;19.93;59.69
10064;BME280;5071;52.360;13.134;2022-08-02T20:54:43;101216.53;;;19.72;59.94
10064;BME280;5071;52.360;13.134;2022-08-02T20:59:46;101206.41;;;19.56;60.75
10064;BME280;5071;52.360;13.134;2022-08-02T21:04:52;101219.25;;;19.50;61.56
10064;BME280;5071;52.360;13.134;2022-08-02T21:09:56;101209.00;;;19.37;60.91
10064;BME280;5071;52.360;13.134;2022-08-02T21:14:59;101214.28;;;19.18;62.37
10064;BME280;5071;52.360;13.134;2022-08-02T21:20:00;101212.38;;;18.98;62.85
10064;BME280;5071;52.360;13.134;2022-08-02T21:25:05;101204.28;;;18.75;61.73
10064;BME280;5071;52.360;13.134;2022-08-02T21:30:10;101205.34;;;18.71;62.83
10064;BME280;5071;52.360;13.134;2022-08-02T21:35:12;101218.28;;;18.61;63.57
10064;BME280;5071;52.360;13.134;2022-08-02T21:40:16;101208.13;;;18.45;63.15
10064;BME280;5071;52.360;13.134;2022-08-02T21:45:19;101208.56;;;18.33;63.60
10064;BME280;5071;52.360;13.134;2022-08-02T21:50:22;101225.81;;;18.27;64.79
10064;BME280;5071;52.360;13.134;2022-08-02T21:55:27;101216.81;;;18.03;64.57
10064;BME280;5071;52.360;13.134;2022-08-02T22:00:50;101221.22;;;18.06;64.51
10064;BME280;5071;52.360;13.134;2022-08-02T22:05:52;101217.09;;;17.96;64.32
10064;BME280;5071;52.360;13.134;2022-08-02T22:10:56;101224.38;;;17.92;65.11
10064;BME280;5071;52.360;13.134;2022-08-02T22:15:58;101233.66;;;17.82;65.08
10064;BME280;5071;52.360;13.134;2022-08-02T22:21:02;101233.53;;;17.86;64.31
10064;BME280;5071;52.360;13.134;2022-08-02T22:26:17;101243.91;;;17.71;65.11
10064;BME280;5071;52.360;13.134;2022-08-02T22:31:19;101238.03;;;17.59;65.26
10064;BME280;5071;52.360;13.134;2022-08-02T22:36:43;101240.97;;;17.52;66.03
10064;BME280;5071;52.360;13.134;2022-08-02T22:41:47;101252.13;;;17.38;66.07
10064;BME280;5071;52.360;13.134;2022-08-02T22:47:04;101255.03;;;17.32;66.13
10064;BME280;5071;52.360;13.134;2022-08-02T22:52:15;101255.19;;;17.27;66.52
10064;BME280;5071;52.360;13.134;2022-08-02T22:57:39;101259.19;;;17.14;66.19
10064;BME280;5071;52.360;13.134;2022-08-02T23:02:58;101266.28;;;17.15;66.74
10064;BME280;5071;52.360;13.134;2022-08-02T23:08:00;101267.41;;;17.07;66.87
10064;BME280;5071;52.360;13.134;2022-08-02T23:13:04;101257.69;;;17.03;67.48
10064;BME280;5071;52.360;13.134;2022-08-02T23:18:06;101260.47;;;17.00;67.42
10064;BME280;5071;52.360;13.134;2022-08-02T23:23:08;101256.25;;;16.93;67.63
10064;BME280;5071;52.360;13.134;2022-08-02T23:28:13;101251.00;;;16.88;67.42
10064;BME280;5071;52.360;13.134;2022-08-02T23:33:16;101254.75;;;16.81;67.90
10064;BME280;5071;52.360;13.134;2022-08-02T23:38:18;101256.66;;;16.78;67.80
10064;BME280;5071;52.360;13.134;2022-08-02T23:43:21;101264.56;;;16.84;67.96
10064;BME280;5071;52.360;13.134;2022-08-02T23:48:24;101264.31;;;16.92;68.00
10064;BME280;5071;52.360;13.134;2022-08-02T23:53:26;101255.09;;;17.00;67.77
10064;BME280;5071;52.360;13.134;2022-08-02T23:58:30;101248.09;;;16.96;67.56
